createdAt,value
2023-05-19T00:04:31.762Z,3.00
2023-05-19T00:09:34.977Z,2.75
2023-05-19T00:14:38.017Z,2.88
2023-05-19T00:19:42.051Z,2.60
2023-05-19T00:24:44.688Z,3.00
2023-05-19T00:29:47.281Z,2.78
2023-05-19T00:34:51.289Z,2.75
2023-05-19T00:39:53.967Z,3.00
2023-05-19T00:44:56.730Z,2.53
2023-05-19T00:50:00.820Z,2.65
2023-05-19T00:55:03.517Z,2.88
2023-05-19T01:00:08.043Z,2.63
2023-05-19T01:05:12.277Z,2.60
2023-05-19T01:10:15.117Z,2.80
2023-05-19T01:15:17.898Z,2.80
2023-05-19T01:20:25.902Z,2.83
2023-05-19T01:25:55.766Z,2.58
2023-05-19T01:31:01.232Z,2.67
2023-05-19T01:36:05.038Z,2.85
2023-05-19T01:41:07.980Z,2.70
2023-05-19T01:46:12.771Z,2.70
2023-05-19T01:51:15.497Z,2.72
2023-05-19T01:56:22.927Z,2.95
2023-05-19T02:01:34.007Z,2.78
2023-05-19T02:06:42.528Z,2.40
2023-05-19T02:11:53.799Z,2.70
2023-05-19T02:16:59.228Z,2.50
2023-05-19T02:22:01.970Z,2.47
2023-05-19T02:27:04.896Z,2.45
2023-05-19T02:32:09.415Z,2.08
2023-05-19T02:37:12.417Z,2.20
2023-05-19T02:42:17.683Z,2.55
2023-05-19T02:47:21.884Z,2.30
2023-05-19T02:52:24.552Z,2.40
2023-05-19T02:57:27.612Z,2.45
2023-05-19T03:02:33.296Z,2.60
2023-05-19T03:07:36.137Z,2.47
2023-05-19T03:12:38.921Z,2.30
2023-05-19T03:17:43.222Z,2.50
2023-05-19T03:22:45.994Z,2.40
2023-05-19T03:27:48.837Z,2.35
2023-05-19T03:32:53.192Z,2.30
2023-05-19T03:37:55.993Z,2.30
2023-05-19T03:43:00.934Z,2.33
2023-05-19T03:48:05.950Z,2.30
2023-05-19T03:53:30.234Z,2.38
2023-05-19T03:58:33.028Z,2.20
2023-05-19T04:03:37.188Z,2.42
2023-05-19T04:08:40.488Z,2.40
2023-05-19T04:13:44.500Z,2.78
2023-05-19T04:18:49.687Z,2.15
2023-05-19T04:23:55.747Z,2.35
2023-05-19T04:28:58.872Z,2.30
2023-05-19T04:34:02.971Z,2.40
2023-05-19T04:39:07.911Z,2.05
2023-05-19T04:44:10.972Z,1.98
2023-05-19T04:49:15.330Z,1.80
2023-05-19T04:54:17.989Z,2.00
2023-05-19T04:59:20.703Z,1.83
2023-05-19T05:04:25.888Z,2.05
2023-05-19T05:09:28.570Z,1.90
2023-05-19T05:14:34.384Z,1.83
2023-05-19T05:19:39.265Z,1.80
2023-05-19T05:24:43.150Z,1.85
2023-05-19T05:29:45.997Z,1.63
2023-05-19T05:34:50.861Z,1.70
2023-05-19T05:39:53.661Z,1.80
2023-05-19T05:44:56.388Z,1.70
2023-05-19T05:50:01.220Z,1.77
2023-05-19T05:55:06.130Z,1.60
2023-05-19T06:00:15.411Z,1.60
2023-05-19T06:05:19.541Z,1.60
2023-05-19T06:10:24.086Z,1.90
2023-05-19T06:15:27.328Z,1.55
2023-05-19T06:20:39.015Z,1.50
2023-05-19T06:25:42.130Z,1.65
2023-05-19T06:30:45.524Z,1.60
2023-05-19T06:36:24.664Z,1.98
2023-05-19T06:41:30.187Z,1.38
2023-05-19T06:46:33.096Z,1.50
2023-05-19T06:51:37.343Z,1.50
2023-05-19T06:56:40.292Z,1.52
2023-05-19T07:01:43.206Z,1.45
2023-05-19T07:06:47.740Z,1.52
2023-05-19T07:11:50.816Z,1.50
2023-05-19T07:16:53.585Z,1.60
2023-05-19T07:21:59.258Z,1.40
2023-05-19T07:27:01.975Z,1.35
2023-05-19T07:32:05.176Z,1.55
2023-05-19T07:37:09.179Z,1.50
2023-05-19T07:42:11.805Z,1.60
2023-05-19T07:47:14.509Z,1.65
2023-05-19T07:52:18.747Z,1.50
2023-05-19T07:57:21.382Z,1.58
2023-05-19T08:02:24.120Z,1.60
2023-05-19T08:07:28.139Z,1.58
2023-05-19T08:12:30.804Z,1.50
2023-05-19T08:17:33.469Z,1.48
2023-05-19T08:22:37.673Z,1.30
2023-05-19T08:27:40.529Z,1.70
2023-05-19T08:32:43.366Z,1.40
2023-05-19T08:37:47.566Z,1.67
2023-05-19T08:42:50.545Z,1.55
2023-05-19T08:47:53.473Z,1.75
2023-05-19T08:53:03.022Z,1.70
2023-05-19T08:58:05.940Z,1.48
2023-05-19T09:03:18.046Z,1.83
2023-05-19T09:08:27.630Z,1.60
2023-05-19T09:13:30.365Z,1.40
2023-05-19T09:18:33.096Z,1.40
2023-05-19T09:23:37.094Z,1.70
2023-05-19T09:28:41.298Z,1.70
2023-05-19T09:33:45.998Z,1.70
2023-05-19T09:38:50.290Z,1.80
2023-05-19T09:43:55.792Z,1.65
2023-05-19T09:48:58.578Z,1.60
2023-05-19T09:54:02.633Z,1.40
2023-05-19T09:59:05.333Z,1.55
2023-05-19T10:04:08.129Z,1.67
2023-05-19T10:09:12.305Z,1.75
2023-05-19T10:14:15.197Z,1.40
2023-05-19T10:19:17.876Z,1.40
2023-05-19T10:24:22.301Z,1.55
2023-05-19T10:29:29.372Z,2.10
2023-05-19T10:35:01.961Z,2.92
2023-05-19T10:40:12.418Z,2.85
2023-05-19T10:45:18.706Z,2.28
2023-05-19T10:50:21.764Z,2.55
2023-05-19T10:55:48.085Z,2.50
2023-05-19T11:01:01.377Z,2.47
2023-05-19T11:06:18.505Z,2.47
2023-05-19T11:11:23.403Z,2.35
2023-05-19T11:16:30.360Z,2.63
2023-05-19T11:21:43.532Z,2.38
2023-05-19T11:26:47.550Z,2.53
2023-05-19T11:31:50.486Z,2.05
2023-05-19T11:36:53.847Z,2.15
2023-05-19T11:41:57.843Z,2.00
2023-05-19T11:47:01.129Z,1.98
2023-05-19T11:52:04.752Z,2.30
2023-05-19T11:57:09.472Z,2.25
2023-05-19T12:02:18.312Z,2.03
2023-05-19T12:07:24.110Z,1.95
2023-05-19T12:12:31.077Z,2.08
2023-05-19T12:17:33.787Z,2.00
2023-05-19T12:22:36.509Z,1.88
2023-05-19T12:27:40.541Z,1.98
2023-05-19T12:32:43.966Z,1.83
2023-05-19T12:37:49.047Z,2.17
2023-05-19T12:42:58.083Z,2.17
2023-05-19T12:48:04.347Z,2.20
2023-05-19T12:53:09.948Z,1.90
2023-05-19T12:58:14.228Z,2.00
2023-05-19T13:03:18.020Z,1.67
2023-05-19T13:08:23.850Z,1.90
2023-05-19T13:13:27.898Z,1.98
2023-05-19T13:18:32.429Z,1.50
2023-05-19T13:23:35.713Z,1.80
2023-05-19T13:28:39.757Z,1.95
2023-05-19T13:33:42.408Z,2.15
2023-05-19T13:38:45.139Z,1.80
2023-05-19T13:43:49.131Z,1.90
2023-05-19T13:48:51.780Z,1.85
2023-05-19T13:53:54.453Z,1.85
2023-05-19T13:58:58.453Z,1.80
2023-05-19T14:04:01.494Z,2.00
2023-05-19T14:09:04.346Z,1.90
2023-05-19T14:14:09.418Z,1.70
2023-05-19T14:19:14.488Z,2.20
2023-05-19T14:24:17.575Z,1.88
2023-05-19T14:29:21.537Z,1.60
2023-05-19T14:34:24.183Z,1.77
2023-05-19T14:39:26.932Z,1.83
2023-05-19T14:44:33.894Z,1.75
2023-05-19T14:49:36.532Z,1.60
2023-05-19T14:54:39.338Z,1.60
2023-05-19T14:59:43.293Z,1.80
2023-05-19T15:04:46.178Z,1.60
2023-05-19T15:09:48.978Z,1.73
2023-05-19T15:14:53.080Z,1.60
2023-05-19T15:19:55.719Z,2.10
2023-05-19T15:24:58.379Z,1.77
2023-05-19T15:30:02.376Z,1.60
2023-05-19T15:35:05.518Z,1.83
2023-05-19T15:40:09.352Z,1.60
2023-05-19T15:45:13.358Z,1.63
2023-05-19T15:50:16.869Z,1.75
2023-05-19T15:55:19.891Z,1.70
2023-05-19T16:00:24.291Z,1.88
2023-05-19T16:05:26.974Z,1.48
2023-05-19T16:10:29.639Z,2.03
2023-05-19T16:15:33.627Z,1.95
2023-05-19T16:20:36.337Z,1.65
2023-05-19T16:25:38.979Z,1.80
2023-05-19T16:30:43.534Z,1.67
2023-05-19T16:35:46.273Z,1.80
2023-05-19T16:40:48.949Z,1.60
2023-05-19T16:45:53.016Z,1.90
2023-05-19T16:50:55.762Z,1.58
2023-05-19T16:55:59.187Z,1.60
2023-05-19T17:01:03.889Z,1.77
2023-05-19T17:06:06.639Z,1.60
2023-05-19T17:11:09.432Z,1.80
2023-05-19T17:16:13.509Z,1.90
2023-05-19T17:21:17.432Z,1.90
2023-05-19T17:26:20.144Z,1.70
2023-05-19T17:31:24.156Z,1.67
2023-05-19T17:36:27.082Z,1.60
2023-05-19T17:41:29.781Z,14.38
2023-05-19T17:46:34.600Z,15.73
2023-05-19T17:51:38.002Z,15.57
2023-05-19T17:56:42.519Z,12.18
2023-05-19T18:01:46.907Z,18.55
2023-05-19T18:06:52.431Z,10.55
2023-05-19T18:11:55.358Z,20.48
2023-05-19T18:16:59.436Z,11.70
2023-05-19T18:22:02.165Z,20.45
2023-05-19T18:27:05.110Z,20.40
2023-05-19T18:32:09.431Z,13.60
2023-05-19T18:37:12.140Z,15.73
2023-05-19T18:42:14.825Z,15.18
2023-05-19T18:47:19.663Z,15.15
2023-05-19T18:52:22.410Z,15.23
2023-05-19T18:57:25.107Z,17.17
2023-05-19T19:02:29.144Z,17.00
2023-05-19T19:07:31.832Z,10.60
2023-05-19T19:12:34.726Z,10.65
2023-05-19T19:17:39.800Z,11.57
2023-05-19T19:22:42.607Z,9.63
2023-05-19T19:27:45.399Z,12.82
2023-05-19T19:32:49.506Z,11.35
2023-05-19T19:37:52.596Z,10.85
2023-05-19T19:42:55.236Z,12.02
2023-05-19T19:47:59.357Z,9.02
2023-05-19T19:53:02.126Z,10.93
2023-05-19T19:58:04.774Z,11.48
2023-05-19T20:03:08.921Z,11.02
2023-05-19T20:13:14.520Z,11.13
2023-05-19T20:18:18.595Z,10.00
2023-05-19T20:23:21.275Z,9.55
2023-05-19T20:28:24.122Z,10.02
2023-05-19T20:33:28.380Z,7.65
2023-05-19T20:38:31.074Z,9.10
2023-05-19T20:43:33.886Z,9.07
2023-05-19T20:48:37.940Z,8.38
2023-05-19T20:53:40.776Z,8.60
2023-05-19T20:58:43.439Z,8.38
2023-05-19T21:03:47.463Z,8.68
2023-05-19T21:08:50.146Z,8.40
2023-05-19T21:13:54.147Z,8.57
2023-05-19T21:18:58.303Z,6.72
2023-05-19T21:24:01.352Z,7.32
2023-05-19T21:29:03.981Z,7.53
2023-05-19T21:34:08.171Z,6.25
2023-05-19T21:39:10.847Z,6.95
2023-05-19T21:44:13.467Z,6.68
2023-05-19T21:49:17.541Z,6.85
2023-05-19T21:54:20.201Z,6.50
2023-05-19T21:59:24.621Z,6.88
2023-05-19T22:04:31.329Z,5.85
2023-05-19T22:09:34.024Z,6.50
2023-05-19T22:14:36.814Z,6.20
2023-05-19T22:19:40.877Z,5.93
2023-05-19T22:24:43.518Z,5.82
2023-05-19T22:29:46.211Z,5.82
2023-05-19T22:34:50.410Z,5.70
2023-05-19T22:39:53.049Z,5.13
2023-05-19T22:44:55.716Z,5.25
2023-05-19T22:50:00.056Z,5.25
2023-05-19T22:55:02.791Z,5.07
2023-05-19T23:00:06.606Z,5.30
2023-05-19T23:05:11.258Z,4.97
2023-05-19T23:10:14.185Z,4.55
2023-05-19T23:15:16.907Z,4.75
2023-05-19T23:20:21.184Z,4.53
2023-05-19T23:25:23.854Z,4.60
2023-05-19T23:30:26.531Z,4.30
2023-05-19T23:35:30.612Z,4.28
2023-05-19T23:40:33.291Z,3.90
2023-05-19T23:45:35.924Z,4.13
2023-05-19T23:50:39.914Z,3.97
2023-05-19T23:55:43.271Z,4.03
